Camilo Daza International Airport
SKCC : rendu visible

Aérodrome :











RETROUVEZ-NOUS SUR...

 
LOGIN :

S'inscrire | Disclaimer

   EN    FR    IT 

 









Légende :    VFR   VFR Marginal   IFR   IFR Intensif   IFR Très Intensif
Visi : 
Plafond : 
>= 8 km
>= 3000ft
5 à 8 km
1000 à 3000 ft
1500m à 5 km
500 à 1000 ft
800 à 1500m
200 à 500 ft
< 800m
< 200 ft
Symboles :   Orages  Brouillard  Fortes neiges  Fortes précipitations  Vent > 20 kt






- Altitude de l'aérodrome : 1096 ft
- Code IATA : CUC


SKCC - Camilo Daza International

DERNIER METAR :
  • 281500Z 02009KT 7000 VCFG SCT012 SCT080 26/23 A3005

METARs EXPIRÉS :
  • 281400Z 35009KT 6000 VCFG SCT008 BKN070 26/24 A30004
  • 281300Z 01005KT 5000 BR SCT008 BKN070 24/23 A3003

TAF TAF SKCC
Valide du 28 à 12h jusqu'au 29 à 12h UTC


281030Z 2812/2912 VRB03KT 9999 SCT018 SCT070
PROB40
TEMPO 2819/2821 35010KT 5000 DZRA TX31/2819Z TN23/2911Z



MET'MAP, la Météo Aéronautique d'un coup d'oeil ! - Copyright ORBIFLY Décembre 2007 - Disclaimer

ORBIFLY MET'MAP TEAM :

Programmation & Développement : Alexandra Zaïnal
Sur une idée originale de : Baudouin d'Aumeries
Assistance à la programmation : Marc-Olivier Méhu
Soutien technique & logistique : Manuel Goepfert

Contact : metmap@orbifly.com




SOURCES & CREDITS :

   NOAA       Earth
Advisory